sensor_id;sensor_type;location;lat;lon;timestamp;noise_LAeq;noise_LA_min;noise_LA_max;noise_LA01;noise_LA95
74234;Laerm;62591;55.764;37.718;2023-11-22T00:01:53;41.99;34.50;53.59;;
74234;Laerm;62591;55.764;37.718;2023-11-22T00:04:22;42.45;34.42;56.92;;
74234;Laerm;62591;55.764;37.718;2023-11-22T00:06:50;43.10;35.05;59.07;;
74234;Laerm;62591;55.764;37.718;2023-11-22T00:09:19;39.14;34.24;49.22;;
74234;Laerm;62591;55.764;37.718;2023-11-22T00:11:51;40.21;33.87;49.27;;
74234;Laerm;62591;55.764;37.718;2023-11-22T00:14:20;39.12;33.36;49.93;;
74234;Laerm;62591;55.764;37.718;2023-11-22T00:16:50;38.40;33.87;43.90;;
74234;Laerm;62591;55.764;37.718;2023-11-22T00:19:18;40.40;34.11;54.75;;
74234;Laerm;62591;55.764;37.718;2023-11-22T00:21:50;40.03;34.77;48.65;;
74234;Laerm;62591;55.764;37.718;2023-11-22T00:24:19;46.50;35.25;55.39;;
74234;Laerm;62591;55.764;37.718;2023-11-22T00:26:48;48.33;35.02;60.72;;
74234;Laerm;62591;55.764;37.718;2023-11-22T00:29:18;49.79;35.24;61.02;;
74234;Laerm;62591;55.764;37.718;2023-11-22T00:31:46;41.42;35.76;55.32;;
74234;Laerm;62591;55.764;37.718;2023-11-22T00:34:16;37.71;34.06;42.47;;
74234;Laerm;62591;55.764;37.718;2023-11-22T00:36:47;43.86;33.69;55.31;;
74234;Laerm;62591;55.764;37.718;2023-11-22T00:39:18;38.43;34.08;45.32;;
74234;Laerm;62591;55.764;37.718;2023-11-22T00:41:46;37.72;33.63;44.47;;
74234;Laerm;62591;55.764;37.718;2023-11-22T00:44:15;39.73;34.33;61.68;;
74234;Laerm;62591;55.764;37.718;2023-11-22T00:46:46;40.15;35.19;56.53;;
74234;Laerm;62591;55.764;37.718;2023-11-22T00:49:15;39.54;33.49;50.96;;
74234;Laerm;62591;55.764;37.718;2023-11-22T00:51:44;41.93;34.74;52.65;;
74234;Laerm;62591;55.764;37.718;2023-11-22T00:54:13;38.81;33.80;47.00;;
74234;Laerm;62591;55.764;37.718;2023-11-22T00:56:42;38.73;33.95;48.52;;
74234;Laerm;62591;55.764;37.718;2023-11-22T00:59:10;38.00;33.73;55.92;;
74234;Laerm;62591;55.764;37.718;2023-11-22T01:01:39;41.48;34.52;63.36;;
74234;Laerm;62591;55.764;37.718;2023-11-22T01:04:09;50.28;39.64;62.65;;
74234;Laerm;62591;55.764;37.718;2023-11-22T01:06:39;40.35;34.21;51.11;;
74234;Laerm;62591;55.764;37.718;2023-11-22T01:09:09;39.17;33.43;49.14;;
74234;Laerm;62591;55.764;37.718;2023-11-22T01:11:41;42.53;34.59;54.03;;
74234;Laerm;62591;55.764;37.718;2023-11-22T01:14:12;38.05;34.35;45.79;;
74234;Laerm;62591;55.764;37.718;2023-11-22T01:16:40;38.38;34.71;48.24;;
74234;Laerm;62591;55.764;37.718;2023-11-22T01:19:12;44.54;34.55;56.63;;
74234;Laerm;62591;55.764;37.718;2023-11-22T01:21:41;48.00;35.48;72.89;;
74234;Laerm;62591;55.764;37.718;2023-11-22T01:24:10;39.59;34.98;49.02;;
74234;Laerm;62591;55.764;37.718;2023-11-22T01:26:39;41.76;35.22;49.62;;
74234;Laerm;62591;55.764;37.718;2023-11-22T01:29:08;40.67;35.37;53.19;;
74234;Laerm;62591;55.764;37.718;2023-11-22T01:31:39;39.04;33.87;47.93;;
74234;Laerm;62591;55.764;37.718;2023-11-22T01:34:09;38.78;34.08;47.84;;
74234;Laerm;62591;55.764;37.718;2023-11-22T01:36:42;40.34;34.41;52.58;;
74234;Laerm;62591;55.764;37.718;2023-11-22T01:39:11;46.13;36.28;60.98;;
74234;Laerm;62591;55.764;37.718;2023-11-22T01:41:40;42.24;36.15;53.07;;
74234;Laerm;62591;55.764;37.718;2023-11-22T01:44:10;43.54;35.68;67.67;;
74234;Laerm;62591;55.764;37.718;2023-11-22T01:46:39;40.73;34.61;54.56;;
74234;Laerm;62591;55.764;37.718;2023-11-22T01:49:09;42.21;37.62;53.44;;
74234;Laerm;62591;55.764;37.718;2023-11-22T01:51:40;41.97;35.07;52.89;;
74234;Laerm;62591;55.764;37.718;2023-11-22T01:54:09;39.14;34.95;54.36;;
74234;Laerm;62591;55.764;37.718;2023-11-22T01:56:39;39.09;34.19;56.35;;
74234;Laerm;62591;55.764;37.718;2023-11-22T01:59:08;40.84;35.01;51.92;;
74234;Laerm;62591;55.764;37.718;2023-11-22T02:01:37;45.76;35.24;57.90;;
74234;Laerm;62591;55.764;37.718;2023-11-22T02:04:06;39.26;34.95;46.29;;
74234;Laerm;62591;55.764;37.718;2023-11-22T02:06:37;40.52;34.29;55.45;;
74234;Laerm;62591;55.764;37.718;2023-11-22T02:09:07;44.59;36.90;69.76;;
74234;Laerm;62591;55.764;37.718;2023-11-22T02:11:40;47.92;39.83;52.89;;
74234;Laerm;62591;55.764;37.718;2023-11-22T02:14:09;45.73;36.38;55.18;;
74234;Laerm;62591;55.764;37.718;2023-11-22T02:16:38;41.37;35.34;52.98;;
74234;Laerm;62591;55.764;37.718;2023-11-22T02:19:14;40.49;34.55;49.44;;
74234;Laerm;62591;55.764;37.718;2023-11-22T02:21:43;45.75;35.77;70.93;;
74234;Laerm;62591;55.764;37.718;2023-11-22T02:24:14;42.99;34.78;67.41;;
74234;Laerm;62591;55.764;37.718;2023-11-22T02:26:45;41.06;35.36;55.93;;
74234;Laerm;62591;55.764;37.718;2023-11-22T02:29:14;42.55;35.91;58.62;;
74234;Laerm;62591;55.764;37.718;2023-11-22T02:31:43;41.86;34.75;51.73;;
74234;Laerm;62591;55.764;37.718;2023-11-22T02:34:13;43.76;35.22;52.88;;
74234;Laerm;62591;55.764;37.718;2023-11-22T02:36:43;46.42;36.66;60.58;;
74234;Laerm;62591;55.764;37.718;2023-11-22T02:39:41;48.46;44.47;58.91;;
74234;Laerm;62591;55.764;37.718;2023-11-22T02:42:12;48.72;43.36;58.52;;
74234;Laerm;62591;55.764;37.718;2023-11-22T02:44:40;47.02;40.24;62.44;;
74234;Laerm;62591;55.764;37.718;2023-11-22T02:47:09;45.64;38.38;60.12;;
74234;Laerm;62591;55.764;37.718;2023-11-22T02:49:38;45.15;37.06;64.84;;
74234;Laerm;62591;55.764;37.718;2023-11-22T02:52:07;44.75;36.35;55.24;;
74234;Laerm;62591;55.764;37.718;2023-11-22T02:54:37;42.47;36.66;59.01;;
74234;Laerm;62591;55.764;37.718;2023-11-22T02:57:06;42.44;37.71;50.87;;
74234;Laerm;62591;55.764;37.718;2023-11-22T02:59:34;45.95;37.19;63.14;;
74234;Laerm;62591;55.764;37.718;2023-11-22T03:02:03;48.32;39.56;64.23;;
74234;Laerm;62591;55.764;37.718;2023-11-22T03:04:32;46.20;39.16;70.58;;
74234;Laerm;62591;55.764;37.718;2023-11-22T03:07:01;45.47;37.91;60.27;;
74234;Laerm;62591;55.764;37.718;2023-11-22T03:09:29;45.93;39.19;60.37;;
74234;Laerm;62591;55.764;37.718;2023-11-22T03:12:00;45.34;37.87;63.19;;
74234;Laerm;62591;55.764;37.718;2023-11-22T03:14:29;47.04;38.35;62.59;;
74234;Laerm;62591;55.764;37.718;2023-11-22T03:16:58;47.25;38.94;71.60;;
74234;Laerm;62591;55.764;37.718;2023-11-22T03:19:27;44.99;37.08;53.10;;
74234;Laerm;62591;55.764;37.718;2023-11-22T03:21:56;45.81;38.05;57.34;;
74234;Laerm;62591;55.764;37.718;2023-11-22T03:24:25;46.13;37.69;60.22;;
74234;Laerm;62591;55.764;37.718;2023-11-22T03:26:53;51.97;39.32;65.51;;
74234;Laerm;62591;55.764;37.718;2023-11-22T03:29:24;56.16;41.07;67.86;;
74234;Laerm;62591;55.764;37.718;2023-11-22T03:31:54;57.87;40.46;72.97;;
74234;Laerm;62591;55.764;37.718;2023-11-22T03:34:23;43.99;37.75;51.78;;
74234;Laerm;62591;55.764;37.718;2023-11-22T03:36:51;46.08;37.95;59.79;;
74234;Laerm;62591;55.764;37.718;2023-11-22T03:39:20;46.59;38.55;56.28;;
74234;Laerm;62591;55.764;37.718;2023-11-22T03:41:48;44.58;37.51;54.57;;
74234;Laerm;62591;55.764;37.718;2023-11-22T03:44:17;46.26;36.05;58.74;;
74234;Laerm;62591;55.764;37.718;2023-11-22T03:46:47;47.28;38.81;55.80;;
74234;Laerm;62591;55.764;37.718;2023-11-22T03:49:16;46.16;38.28;53.31;;
74234;Laerm;62591;55.764;37.718;2023-11-22T03:51:45;46.56;38.84;64.05;;
74234;Laerm;62591;55.764;37.718;2023-11-22T03:54:13;44.93;38.17;55.25;;
74234;Laerm;62591;55.764;37.718;2023-11-22T03:56:42;50.24;40.24;62.70;;
74234;Laerm;62591;55.764;37.718;2023-11-22T03:59:11;51.02;39.48;59.97;;
74234;Laerm;62591;55.764;37.718;2023-11-22T04:01:40;51.33;39.88;58.74;;
74234;Laerm;62591;55.764;37.718;2023-11-22T04:04:10;52.92;39.39;59.09;;
74234;Laerm;62591;55.764;37.718;2023-11-22T04:06:41;49.96;40.27;65.43;;
74234;Laerm;62591;55.764;37.718;2023-11-22T04:09:09;54.33;44.23;61.52;;
74234;Laerm;62591;55.764;37.718;2023-11-22T04:11:39;52.45;43.62;60.85;;
74234;Laerm;62591;55.764;37.718;2023-11-22T04:14:08;48.57;38.55;61.47;;
74234;Laerm;62591;55.764;37.718;2023-11-22T04:16:37;48.34;39.30;63.39;;
74234;Laerm;62591;55.764;37.718;2023-11-22T04:19:06;49.16;41.00;58.51;;
74234;Laerm;62591;55.764;37.718;2023-11-22T04:21:36;47.32;40.06;55.94;;
74234;Laerm;62591;55.764;37.718;2023-11-22T04:24:07;48.01;40.88;55.54;;
74234;Laerm;62591;55.764;37.718;2023-11-22T04:26:36;49.43;42.90;63.25;;
74234;Laerm;62591;55.764;37.718;2023-11-22T04:29:05;47.51;39.53;53.99;;
74234;Laerm;62591;55.764;37.718;2023-11-22T04:31:34;52.30;42.50;61.77;;
74234;Laerm;62591;55.764;37.718;2023-11-22T04:34:02;48.21;40.29;60.21;;
74234;Laerm;62591;55.764;37.718;2023-11-22T04:36:31;48.74;42.04;56.18;;
74234;Laerm;62591;55.764;37.718;2023-11-22T04:39:01;49.05;42.93;66.46;;
74234;Laerm;62591;55.764;37.718;2023-11-22T04:41:30;49.33;42.55;58.13;;
74234;Laerm;62591;55.764;37.718;2023-11-22T04:43:59;48.68;40.69;55.20;;
74234;Laerm;62591;55.764;37.718;2023-11-22T04:46:29;47.65;40.97;58.26;;
74234;Laerm;62591;55.764;37.718;2023-11-22T04:48:59;48.85;40.80;58.12;;
74234;Laerm;62591;55.764;37.718;2023-11-22T04:51:28;49.81;44.27;55.69;;
74234;Laerm;62591;55.764;37.718;2023-11-22T04:53:56;49.30;43.16;56.07;;
74234;Laerm;62591;55.764;37.718;2023-11-22T04:56:29;49.21;42.77;59.84;;
74234;Laerm;62591;55.764;37.718;2023-11-22T04:58:59;50.81;42.84;65.18;;
74234;Laerm;62591;55.764;37.718;2023-11-22T05:01:31;50.28;43.44;62.82;;
74234;Laerm;62591;55.764;37.718;2023-11-22T05:04:00;49.59;42.43;60.12;;
74234;Laerm;62591;55.764;37.718;2023-11-22T05:06:29;49.35;42.13;59.91;;
74234;Laerm;62591;55.764;37.718;2023-11-22T05:08:58;51.40;43.14;71.95;;
74234;Laerm;62591;55.764;37.718;2023-11-22T05:11:28;51.92;44.36;64.48;;
74234;Laerm;62591;55.764;37.718;2023-11-22T05:13:58;50.99;43.45;65.36;;
74234;Laerm;62591;55.764;37.718;2023-11-22T05:16:27;50.52;45.06;60.55;;
74234;Laerm;62591;55.764;37.718;2023-11-22T05:18:56;52.85;43.18;60.40;;
74234;Laerm;62591;55.764;37.718;2023-11-22T05:21:24;52.89;44.24;58.49;;
74234;Laerm;62591;55.764;37.718;2023-11-22T05:23:53;49.30;44.04;60.31;;
74234;Laerm;62591;55.764;37.718;2023-11-22T05:26:22;49.62;41.94;60.75;;
74234;Laerm;62591;55.764;37.718;2023-11-22T05:28:52;50.52;44.07;62.36;;
74234;Laerm;62591;55.764;37.718;2023-11-22T05:31:21;50.43;44.96;58.20;;
74234;Laerm;62591;55.764;37.718;2023-11-22T05:33:50;50.38;43.11;67.65;;
74234;Laerm;62591;55.764;37.718;2023-11-22T05:36:19;49.07;41.12;72.19;;
74234;Laerm;62591;55.764;37.718;2023-11-22T05:38:47;49.86;43.15;56.24;;
74234;Laerm;62591;55.764;37.718;2023-11-22T05:41:17;50.25;42.98;62.33;;
74234;Laerm;62591;55.764;37.718;2023-11-22T05:43:45;49.57;42.97;58.57;;
74234;Laerm;62591;55.764;37.718;2023-11-22T05:46:15;49.89;42.39;67.92;;
74234;Laerm;62591;55.764;37.718;2023-11-22T05:48:49;50.17;44.39;64.60;;
74234;Laerm;62591;55.764;37.718;2023-11-22T05:51:18;50.36;42.60;66.89;;
74234;Laerm;62591;55.764;37.718;2023-11-22T05:53:47;49.29;42.55;55.49;;
74234;Laerm;62591;55.764;37.718;2023-11-22T05:56:16;49.90;43.11;59.72;;
74234;Laerm;62591;55.764;37.718;2023-11-22T05:58:44;58.48;42.96;76.17;;
74234;Laerm;62591;55.764;37.718;2023-11-22T06:01:13;57.47;42.01;75.44;;
74234;Laerm;62591;55.764;37.718;2023-11-22T06:03:44;51.24;43.10;74.27;;
74234;Laerm;62591;55.764;37.718;2023-11-22T06:06:12;51.54;45.96;60.87;;
74234;Laerm;62591;55.764;37.718;2023-11-22T06:08:42;66.16;48.08;77.68;;
74234;Laerm;62591;55.764;37.718;2023-11-22T06:11:10;52.13;46.23;69.07;;
74234;Laerm;62591;55.764;37.718;2023-11-22T06:13:41;50.36;43.97;66.45;;
74234;Laerm;62591;55.764;37.718;2023-11-22T06:16:10;49.82;44.62;60.21;;
74234;Laerm;62591;55.764;37.718;2023-11-22T06:18:40;49.55;43.12;55.48;;
74234;Laerm;62591;55.764;37.718;2023-11-22T06:21:10;54.61;42.51;66.17;;
74234;Laerm;62591;55.764;37.718;2023-11-22T06:23:39;48.34;41.73;57.93;;
74234;Laerm;62591;55.764;37.718;2023-11-22T06:26:08;50.11;43.85;60.67;;
74234;Laerm;62591;55.764;37.718;2023-11-22T06:28:37;48.98;43.94;57.97;;
74234;Laerm;62591;55.764;37.718;2023-11-22T06:31:05;49.59;43.86;63.02;;
74234;Laerm;62591;55.764;37.718;2023-11-22T06:33:35;47.70;42.06;60.51;;
74234;Laerm;62591;55.764;37.718;2023-11-22T06:36:04;49.49;44.00;62.62;;
74234;Laerm;62591;55.764;37.718;2023-11-22T06:38:34;50.80;44.08;66.50;;
74234;Laerm;62591;55.764;37.718;2023-11-22T06:41:02;50.69;44.13;61.36;;
74234;Laerm;62591;55.764;37.718;2023-11-22T06:43:31;49.03;43.65;65.75;;
74234;Laerm;62591;55.764;37.718;2023-11-22T06:45:59;49.54;41.73;59.58;;
74234;Laerm;62591;55.764;37.718;2023-11-22T06:48:28;48.99;41.56;69.63;;
74234;Laerm;62591;55.764;37.718;2023-11-22T06:50:57;48.23;39.85;57.98;;
74234;Laerm;62591;55.764;37.718;2023-11-22T06:53:25;50.26;42.83;70.97;;
74234;Laerm;62591;55.764;37.718;2023-11-22T06:55:55;48.27;41.23;60.03;;
74234;Laerm;62591;55.764;37.718;2023-11-22T06:58:24;49.56;42.39;66.17;;
74234;Laerm;62591;55.764;37.718;2023-11-22T07:00:53;48.68;40.83;58.20;;
74234;Laerm;62591;55.764;37.718;2023-11-22T07:03:22;47.95;41.40;55.58;;
74234;Laerm;62591;55.764;37.718;2023-11-22T07:05:51;48.05;40.71;55.35;;
74234;Laerm;62591;55.764;37.718;2023-11-22T07:08:20;47.84;42.25;54.36;;
74234;Laerm;62591;55.764;37.718;2023-11-22T07:10:49;50.09;42.04;65.69;;
74234;Laerm;62591;55.764;37.718;2023-11-22T07:13:19;48.05;41.65;58.70;;
74234;Laerm;62591;55.764;37.718;2023-11-22T07:15:48;49.97;42.84;60.35;;
74234;Laerm;62591;55.764;37.718;2023-11-22T07:18:21;48.78;43.23;61.14;;
74234;Laerm;62591;55.764;37.718;2023-11-22T07:20:51;49.31;42.48;63.32;;
74234;Laerm;62591;55.764;37.718;2023-11-22T07:23:23;48.70;42.76;60.36;;
74234;Laerm;62591;55.764;37.718;2023-11-22T07:25:56;50.50;41.59;68.41;;
74234;Laerm;62591;55.764;37.718;2023-11-22T07:28:26;49.40;41.42;63.76;;
74234;Laerm;62591;55.764;37.718;2023-11-22T07:30:55;47.86;40.42;60.06;;
74234;Laerm;62591;55.764;37.718;2023-11-22T07:33:27;49.32;41.37;63.45;;
74234;Laerm;62591;55.764;37.718;2023-11-22T07:35:55;49.26;41.00;64.31;;
74234;Laerm;62591;55.764;37.718;2023-11-22T07:38:25;48.76;42.11;56.13;;
74234;Laerm;62591;55.764;37.718;2023-11-22T07:40:55;49.28;43.37;61.74;;
74234;Laerm;62591;55.764;37.718;2023-11-22T07:43:26;49.48;43.38;61.76;;
74234;Laerm;62591;55.764;37.718;2023-11-22T07:45:55;49.89;43.88;70.98;;
74234;Laerm;62591;55.764;37.718;2023-11-22T07:48:27;48.54;40.83;61.12;;
74234;Laerm;62591;55.764;37.718;2023-11-22T07:50:57;50.80;44.19;70.34;;
74234;Laerm;62591;55.764;37.718;2023-11-22T07:53:26;48.64;41.55;58.10;;
74234;Laerm;62591;55.764;37.718;2023-11-22T07:55:56;50.19;42.31;68.78;;
74234;Laerm;62591;55.764;37.718;2023-11-22T07:58:26;49.46;42.46;58.53;;
74234;Laerm;62591;55.764;37.718;2023-11-22T08:00:55;48.81;42.82;60.80;;
74234;Laerm;62591;55.764;37.718;2023-11-22T08:03:23;50.96;41.80;80.13;;
74234;Laerm;62591;55.764;37.718;2023-11-22T08:05:53;48.39;42.23;64.98;;
74234;Laerm;62591;55.764;37.718;2023-11-22T08:08:23;47.92;41.93;56.50;;
74234;Laerm;62591;55.764;37.718;2023-11-22T08:10:53;49.25;41.19;59.25;;
74234;Laerm;62591;55.764;37.718;2023-11-22T08:13:23;48.87;40.65;56.22;;
74234;Laerm;62591;55.764;37.718;2023-11-22T08:15:54;48.60;41.73;54.91;;
74234;Laerm;62591;55.764;37.718;2023-11-22T08:18:23;49.93;43.08;60.66;;
74234;Laerm;62591;55.764;37.718;2023-11-22T08:20:51;51.48;43.01;67.30;;
74234;Laerm;62591;55.764;37.718;2023-11-22T08:23:21;50.58;43.45;61.79;;
74234;Laerm;62591;55.764;37.718;2023-11-22T08:25:49;57.06;43.21;67.25;;
74234;Laerm;62591;55.764;37.718;2023-11-22T08:28:19;50.11;42.05;66.88;;
74234;Laerm;62591;55.764;37.718;2023-11-22T08:30:48;49.87;42.68;63.83;;
74234;Laerm;62591;55.764;37.718;2023-11-22T08:33:19;52.22;42.89;74.61;;
74234;Laerm;62591;55.764;37.718;2023-11-22T08:35:49;50.49;43.55;63.19;;
74234;Laerm;62591;55.764;37.718;2023-11-22T08:38:25;50.24;42.64;61.57;;
74234;Laerm;62591;55.764;37.718;2023-11-22T08:40:55;50.11;43.46;66.12;;
74234;Laerm;62591;55.764;37.718;2023-11-22T08:43:23;50.48;42.97;67.65;;
74234;Laerm;62591;55.764;37.718;2023-11-22T08:45:53;51.66;44.29;72.59;;
74234;Laerm;62591;55.764;37.718;2023-11-22T08:48:39;53.20;43.28;69.77;;
74234;Laerm;62591;55.764;37.718;2023-11-22T08:51:10;49.98;42.26;64.14;;
74234;Laerm;62591;55.764;37.718;2023-11-22T08:53:40;47.62;41.79;58.30;;
74234;Laerm;62591;55.764;37.718;2023-11-22T08:56:12;48.68;42.60;62.08;;
74234;Laerm;62591;55.764;37.718;2023-11-22T08:58:41;48.37;41.49;63.47;;
74234;Laerm;62591;55.764;37.718;2023-11-22T09:01:10;49.91;41.33;74.02;;
74234;Laerm;62591;55.764;37.718;2023-11-22T09:03:43;49.08;44.12;57.45;;
74234;Laerm;62591;55.764;37.718;2023-11-22T09:06:12;48.50;43.01;62.37;;
74234;Laerm;62591;55.764;37.718;2023-11-22T09:08:40;49.62;42.33;62.80;;
74234;Laerm;62591;55.764;37.718;2023-11-22T09:11:09;48.70;42.24;58.88;;
74234;Laerm;62591;55.764;37.718;2023-11-22T09:13:40;50.07;42.81;66.44;;
74234;Laerm;62591;55.764;37.718;2023-11-22T09:16:09;48.55;42.70;56.76;;
74234;Laerm;62591;55.764;37.718;2023-11-22T09:18:37;48.19;41.77;59.36;;
74234;Laerm;62591;55.764;37.718;2023-11-22T09:21:08;51.68;42.05;80.36;;
74234;Laerm;62591;55.764;37.718;2023-11-22T09:23:36;48.00;40.65;54.89;;
74234;Laerm;62591;55.764;37.718;2023-11-22T09:26:06;47.96;42.34;60.81;;
74234;Laerm;62591;55.764;37.718;2023-11-22T09:28:35;48.74;42.25;56.79;;
74234;Laerm;62591;55.764;37.718;2023-11-22T09:31:03;48.56;41.45;57.32;;
74234;Laerm;62591;55.764;37.718;2023-11-22T09:33:34;49.50;42.13;57.96;;
74234;Laerm;62591;55.764;37.718;2023-11-22T09:36:04;49.95;43.05;55.65;;
74234;Laerm;62591;55.764;37.718;2023-11-22T09:38:39;51.18;41.99;64.63;;
74234;Laerm;62591;55.764;37.718;2023-11-22T09:41:08;47.40;40.96;57.03;;
74234;Laerm;62591;55.764;37.718;2023-11-22T09:43:37;47.02;39.17;53.89;;
74234;Laerm;62591;55.764;37.718;2023-11-22T09:46:08;48.03;40.40;59.62;;
74234;Laerm;62591;55.764;37.718;2023-11-22T09:48:39;47.15;39.41;59.35;;
74234;Laerm;62591;55.764;37.718;2023-11-22T09:51:17;49.16;40.71;68.46;;
74234;Laerm;62591;55.764;37.718;2023-11-22T09:53:55;49.95;43.22;58.88;;
74234;Laerm;62591;55.764;37.718;2023-11-22T09:56:26;48.36;41.30;70.66;;
74234;Laerm;62591;55.764;37.718;2023-11-22T09:58:57;48.89;44.48;56.19;;
74234;Laerm;62591;55.764;37.718;2023-11-22T10:01:28;48.62;42.09;62.22;;
74234;Laerm;62591;55.764;37.718;2023-11-22T10:03:59;48.86;40.49;57.80;;
74234;Laerm;62591;55.764;37.718;2023-11-22T10:06:28;49.32;44.92;59.64;;
74234;Laerm;62591;55.764;37.718;2023-11-22T10:09:03;48.38;41.14;63.85;;
74234;Laerm;62591;55.764;37.718;2023-11-22T10:11:35;48.52;40.23;57.52;;
74234;Laerm;62591;55.764;37.718;2023-11-22T10:14:06;48.83;42.66;55.82;;
74234;Laerm;62591;55.764;37.718;2023-11-22T10:16:36;48.57;42.59;58.08;;
74234;Laerm;62591;55.764;37.718;2023-11-22T10:19:05;49.03;43.49;57.31;;
74234;Laerm;62591;55.764;37.718;2023-11-22T10:21:35;48.02;42.35;55.67;;
74234;Laerm;62591;55.764;37.718;2023-11-22T10:24:06;47.89;41.38;56.05;;
74234;Laerm;62591;55.764;37.718;2023-11-22T10:26:37;48.74;42.80;63.57;;
74234;Laerm;62591;55.764;37.718;2023-11-22T10:29:05;52.77;40.37;67.11;;
74234;Laerm;62591;55.764;37.718;2023-11-22T10:31:37;51.08;42.58;67.69;;
74234;Laerm;62591;55.764;37.718;2023-11-22T10:34:08;48.32;43.11;68.73;;
74234;Laerm;62591;55.764;37.718;2023-11-22T10:36:37;48.83;43.00;55.11;;
74234;Laerm;62591;55.764;37.718;2023-11-22T10:39:09;50.05;42.23;63.41;;
74234;Laerm;62591;55.764;37.718;2023-11-22T10:41:43;50.01;42.73;61.28;;
74234;Laerm;62591;55.764;37.718;2023-11-22T10:44:15;49.74;43.17;65.90;;
74234;Laerm;62591;55.764;37.718;2023-11-22T10:46:44;50.07;43.73;61.96;;
74234;Laerm;62591;55.764;37.718;2023-11-22T10:49:13;50.96;41.98;73.63;;
74234;Laerm;62591;55.764;37.718;2023-11-22T10:51:50;50.33;42.57;70.30;;
74234;Laerm;62591;55.764;37.718;2023-11-22T10:54:22;50.96;47.06;64.65;;
74234;Laerm;62591;55.764;37.718;2023-11-22T10:56:54;52.00;47.40;60.85;;
74234;Laerm;62591;55.764;37.718;2023-11-22T10:59:26;50.81;47.15;64.50;;
74234;Laerm;62591;55.764;37.718;2023-11-22T11:01:56;50.26;46.08;57.26;;
74234;Laerm;62591;55.764;37.718;2023-11-22T11:04:34;52.51;47.34;58.55;;
74234;Laerm;62591;55.764;37.718;2023-11-22T11:07:06;50.50;47.11;56.69;;
74234;Laerm;62591;55.764;37.718;2023-11-22T11:09:40;51.31;47.27;61.05;;
74234;Laerm;62591;55.764;37.718;2023-11-22T11:12:09;51.10;47.02;60.38;;
74234;Laerm;62591;55.764;37.718;2023-11-22T11:14:41;51.16;47.28;59.93;;
74234;Laerm;62591;55.764;37.718;2023-11-22T11:17:14;52.06;46.67;60.81;;
74234;Laerm;62591;55.764;37.718;2023-11-22T11:19:48;51.18;42.15;61.93;;
74234;Laerm;62591;55.764;37.718;2023-11-22T11:22:21;48.82;39.64;64.27;;
74234;Laerm;62591;55.764;37.718;2023-11-22T11:25:00;49.02;42.67;55.85;;
74234;Laerm;62591;55.764;37.718;2023-11-22T11:27:33;48.53;41.66;73.31;;
74234;Laerm;62591;55.764;37.718;2023-11-22T11:30:46;48.12;42.07;59.72;;
74234;Laerm;62591;55.764;37.718;2023-11-22T11:33:16;48.94;42.52;57.81;;
74234;Laerm;62591;55.764;37.718;2023-11-22T11:35:47;48.10;41.94;59.19;;
74234;Laerm;62591;55.764;37.718;2023-11-22T11:38:19;50.94;42.34;67.66;;
74234;Laerm;62591;55.764;37.718;2023-11-22T11:40:52;47.99;42.51;54.30;;
74234;Laerm;62591;55.764;37.718;2023-11-22T11:43:39;47.49;40.01;59.24;;
74234;Laerm;62591;55.764;37.718;2023-11-22T11:46:09;49.26;42.11;65.56;;
74234;Laerm;62591;55.764;37.718;2023-11-22T11:48:37;48.80;41.27;59.61;;
74234;Laerm;62591;55.764;37.718;2023-11-22T11:51:06;49.57;42.87;58.31;;
74234;Laerm;62591;55.764;37.718;2023-11-22T11:53:35;48.62;40.99;56.73;;
74234;Laerm;62591;55.764;37.718;2023-11-22T11:56:06;48.74;41.60;54.18;;
74234;Laerm;62591;55.764;37.718;2023-11-22T11:58:35;50.10;43.17;58.99;;
74234;Laerm;62591;55.764;37.718;2023-11-22T12:01:05;49.20;42.16;61.85;;
74234;Laerm;62591;55.764;37.718;2023-11-22T12:03:36;50.18;42.15;62.43;;
74234;Laerm;62591;55.764;37.718;2023-11-22T12:06:06;47.70;40.69;57.62;;
74234;Laerm;62591;55.764;37.718;2023-11-22T12:08:35;48.09;41.77;55.77;;
74234;Laerm;62591;55.764;37.718;2023-11-22T12:11:05;49.01;41.91;56.01;;
74234;Laerm;62591;55.764;37.718;2023-11-22T12:13:36;48.69;43.17;62.19;;
74234;Laerm;62591;55.764;37.718;2023-11-22T12:16:06;50.95;43.29;60.80;;
74234;Laerm;62591;55.764;37.718;2023-11-22T12:18:41;48.52;41.59;66.98;;
74234;Laerm;62591;55.764;37.718;2023-11-22T12:21:12;51.14;44.74;72.42;;
74234;Laerm;62591;55.764;37.718;2023-11-22T12:23:42;47.80;41.27;63.32;;
74234;Laerm;62591;55.764;37.718;2023-11-22T12:26:15;47.79;42.46;54.89;;
74234;Laerm;62591;55.764;37.718;2023-11-22T12:28:46;48.27;42.12;57.36;;
74234;Laerm;62591;55.764;37.718;2023-11-22T12:31:30;48.60;42.58;55.53;;
74234;Laerm;62591;55.764;37.718;2023-11-22T12:34:04;50.02;42.81;72.11;;
74234;Laerm;62591;55.764;37.718;2023-11-22T12:36:34;49.97;42.80;64.80;;
74234;Laerm;62591;55.764;37.718;2023-11-22T12:39:07;48.11;41.26;63.16;;
74234;Laerm;62591;55.764;37.718;2023-11-22T12:41:48;48.92;40.98;55.81;;
74234;Laerm;62591;55.764;37.718;2023-11-22T12:44:47;49.61;42.24;65.76;;
74234;Laerm;62591;55.764;37.718;2023-11-22T12:47:30;49.50;42.01;67.03;;
74234;Laerm;62591;55.764;37.718;2023-11-22T12:50:00;50.26;44.09;65.82;;
74234;Laerm;62591;55.764;37.718;2023-11-22T12:52:30;50.23;44.31;70.17;;
74234;Laerm;62591;55.764;37.718;2023-11-22T12:55:00;48.24;40.89;59.02;;
74234;Laerm;62591;55.764;37.718;2023-11-22T12:57:31;50.31;42.17;60.05;;
74234;Laerm;62591;55.764;37.718;2023-11-22T13:00:00;50.92;43.70;61.35;;
74234;Laerm;62591;55.764;37.718;2023-11-22T13:02:30;49.16;40.50;58.53;;
74234;Laerm;62591;55.764;37.718;2023-11-22T13:05:03;49.01;41.15;67.63;;
74234;Laerm;62591;55.764;37.718;2023-11-22T13:07:34;49.78;44.01;66.95;;
74234;Laerm;62591;55.764;37.718;2023-11-22T13:10:05;47.36;41.68;56.28;;
74234;Laerm;62591;55.764;37.718;2023-11-22T13:12:36;49.20;41.95;54.90;;
74234;Laerm;62591;55.764;37.718;2023-11-22T13:15:07;49.13;42.07;59.65;;
74234;Laerm;62591;55.764;37.718;2023-11-22T13:17:35;48.49;41.42;64.35;;
74234;Laerm;62591;55.764;37.718;2023-11-22T13:20:06;47.86;42.21;62.28;;
74234;Laerm;62591;55.764;37.718;2023-11-22T13:22:41;47.89;42.26;55.26;;
74234;Laerm;62591;55.764;37.718;2023-11-22T13:25:12;50.22;43.22;63.24;;
74234;Laerm;62591;55.764;37.718;2023-11-22T13:27:46;50.32;41.28;61.30;;
74234;Laerm;62591;55.764;37.718;2023-11-22T13:30:16;46.25;40.97;53.29;;
74234;Laerm;62591;55.764;37.718;2023-11-22T13:32:47;49.76;39.35;66.74;;
74234;Laerm;62591;55.764;37.718;2023-11-22T13:35:17;47.08;41.24;55.64;;
74234;Laerm;62591;55.764;37.718;2023-11-22T13:37:47;48.80;41.71;53.35;;
74234;Laerm;62591;55.764;37.718;2023-11-22T13:40:17;48.18;41.34;62.68;;
74234;Laerm;62591;55.764;37.718;2023-11-22T13:42:51;48.50;40.38;68.03;;
74234;Laerm;62591;55.764;37.718;2023-11-22T13:45:20;49.53;43.95;65.59;;
74234;Laerm;62591;55.764;37.718;2023-11-22T13:47:51;47.76;42.85;53.33;;
74234;Laerm;62591;55.764;37.718;2023-11-22T13:50:24;51.02;39.90;68.72;;